Time;durP1;ratioP1;P1;durP2;ratioP2;P2;SDS_P1;SDS_P2;PMS_P1;PMS_P2;Temp;Humidity;BMP_temperature;BMP_pressure;BME280_temperature;BME280_humidity;BME280_pressure;Samples;Min_cycle;Max_cycle;Signal;HPM_P1;HPM_P2
2023/01/13 00:02:16;;;;;;;;;;;;;;;5.20;85.27;95504.03;5113672;28;1047;-53
2023/01/13 00:04:42;;;;;;;;;;;;;;;5.28;85.10;95511.41;5113697;28;1046;-53
2023/01/13 00:07:07;;;;;;;;;;;;;;;5.33;85.30;95508.38;5113777;28;1102;-53
2023/01/13 00:09:34;;;;;;;;;;;;;;;5.32;85.12;95512.84;5113619;28;968;-52
2023/01/13 00:12:00;;;;;;;;;;;;;;;5.36;84.96;95510.78;5113451;28;1981;-53
2023/01/13 00:14:28;;;;;;;;;;;;;;;5.44;84.71;95513.69;5116948;28;1070;-53
2023/01/13 00:16:54;;;;;;;;;;;;;;;5.47;84.40;95513.44;5116629;28;1037;-53
2023/01/13 00:19:20;;;;;;;;;;;;;;;5.42;85.16;95523.56;5117731;28;1094;-53
2023/01/13 00:21:46;;;;;;;;;;;;;;;5.32;85.21;95520.78;5117585;28;1040;-53
2023/01/13 00:24:12;;;;;;;;;;;;;;;5.20;85.86;95514.66;5117426;28;1146;-53
2023/01/13 00:26:38;;;;;;;;;;;;;;;5.06;86.54;95517.50;5117835;28;961;-53
2023/01/13 00:29:04;;;;;;;;;;;;;;;4.95;86.54;95517.50;5117621;28;969;-53
2023/01/13 00:31:30;;;;;;;;;;;;;;;4.93;85.87;95512.31;5116239;28;1985;-53
2023/01/13 00:33:58;;;;;;;;;;;;;;;4.74;86.72;95519.97;5117471;28;1055;-53
2023/01/13 00:36:24;;;;;;;;;;;;;;;4.68;87.29;95516.00;5117432;28;953;-53
2023/01/13 00:38:50;;;;;;;;;;;;;;;4.91;86.38;95514.22;5117124;28;1074;-53
2023/01/13 00:41:17;;;;;;;;;;;;;;;5.11;85.78;95515.34;5117518;28;944;-53
2023/01/13 00:43:43;;;;;;;;;;;;;;;5.20;85.52;95516.47;5117331;28;1036;-52
2023/01/13 00:46:10;;;;;;;;;;;;;;;5.27;85.26;95507.91;5116058;28;957;-53
2023/01/13 00:48:37;;;;;;;;;;;;;;;5.28;85.70;95514.88;5115989;28;1027;-53
2023/01/13 00:51:07;;;;;;;;;;;;;;;5.21;85.16;95512.84;5116821;27;1975;-53
2023/01/13 00:53:34;;;;;;;;;;;;;;;5.02;85.69;95506.28;5117044;28;1039;-53
2023/01/13 00:56:01;;;;;;;;;;;;;;;4.84;85.85;95508.56;5116930;28;1040;-53
2023/01/13 00:58:29;;;;;;;;;;;;;;;4.79;86.33;95509.88;5116947;28;1129;-53
2023/01/13 01:00:58;;;;;;;;;;;;;;;4.69;86.85;95507.94;5116983;28;1030;-53
2023/01/13 01:03:24;;;;;;;;;;;;;;;4.89;86.34;95508.22;5116947;28;1053;-53
2023/01/13 01:05:50;;;;;;;;;;;;;;;5.05;85.54;95500.78;5116680;28;995;-53
2023/01/13 01:08:16;;;;;;;;;;;;;;;5.14;85.75;95501.88;5115858;28;1060;-53
2023/01/13 01:10:43;;;;;;;;;;;;;;;5.14;86.68;95511.63;5116892;28;953;-53
2023/01/13 01:13:10;;;;;;;;;;;;;;;5.03;87.01;95509.81;5116613;28;2074;-53
2023/01/13 01:15:40;;;;;;;;;;;;;;;4.81;87.79;95510.59;5116807;28;1034;-53
2023/01/13 01:18:06;;;;;;;;;;;;;;;4.72;88.13;95506.84;5116768;28;976;-53
2023/01/13 01:20:32;;;;;;;;;;;;;;;4.83;86.70;95504.22;5116459;28;1036;-52
2023/01/13 01:22:59;;;;;;;;;;;;;;;4.98;85.86;95507.50;5116630;28;1141;-53
2023/01/13 01:25:25;;;;;;;;;;;;;;;5.09;85.48;95506.69;5116035;28;1075;-53
2023/01/13 01:27:52;;;;;;;;;;;;;;;5.18;85.70;95513.94;5116445;28;979;-54
2023/01/13 01:30:18;;;;;;;;;;;;;;;5.20;85.37;95501.41;5116417;28;1094;-53
2023/01/13 01:32:44;;;;;;;;;;;;;;;5.20;85.21;95500.56;5116237;28;1991;-53
2023/01/13 01:35:10;;;;;;;;;;;;;;;5.17;85.85;95498.97;5114973;28;1042;-53
2023/01/13 01:37:36;;;;;;;;;;;;;;;5.20;85.73;95498.75;5116220;28;1071;-52
2023/01/13 01:40:03;;;;;;;;;;;;;;;5.18;86.27;95505.09;5116249;27;1028;-53
2023/01/13 01:45:18;;;;;;;;;;;;;;;5.17;86.19;95498.13;5116143;28;1015;-53
2023/01/13 01:47:47;;;;;;;;;;;;;;;5.11;86.58;95491.50;5115900;28;1036;-52
2023/01/13 01:50:13;;;;;;;;;;;;;;;5.04;86.63;95495.59;5116279;28;1063;-53
2023/01/13 01:52:42;;;;;;;;;;;;;;;5.03;87.35;95493.91;5114571;28;1925;-53
2023/01/13 01:55:15;;;;;;;;;;;;;;;5.07;87.67;95492.72;5114817;28;956;-53
2023/01/13 01:57:41;;;;;;;;;;;;;;;4.95;87.89;95493.66;5115980;28;1028;-53
2023/01/13 02:00:07;;;;;;;;;;;;;;;4.87;87.85;95486.28;5115626;28;1087;-53
2023/01/13 02:02:34;;;;;;;;;;;;;;;4.87;87.81;95489.78;5115767;28;1043;-52
2023/01/13 02:05:00;;;;;;;;;;;;;;;4.94;87.94;95481.38;5115592;28;1872;-52
2023/01/13 02:07:27;;;;;;;;;;;;;;;4.95;88.12;95488.34;5115784;28;984;-53
2023/01/13 02:09:54;;;;;;;;;;;;;;;4.99;87.46;95484.50;5115621;28;1043;-52
2023/01/13 02:12:31;;;;;;;;;;;;;;;4.95;88.02;95478.59;5115535;28;1990;-52
2023/01/13 02:15:07;;;;;;;;;;;;;;;4.95;88.03;95485.69;5115463;28;976;-53
2023/01/13 02:17:52;;;;;;;;;;;;;;;4.94;88.29;95481.38;5115458;28;1102;-52
2023/01/13 02:20:18;;;;;;;;;;;;;;;4.93;88.23;95479.66;5115497;28;1321;-53
2023/01/13 02:23:02;;;;;;;;;;;;;;;4.93;88.42;95477.84;5115344;28;959;-53
2023/01/13 02:25:41;;;;;;;;;;;;;;;4.91;88.63;95478.94;5115076;28;1154;-53
2023/01/13 02:28:20;;;;;;;;;;;;;;;4.85;88.62;95478.44;5115117;28;1043;-53
2023/01/13 02:33:39;;;;;;;;;;;;;;;4.77;89.11;95470.25;5115154;28;1043;-53
2023/01/13 02:36:11;;;;;;;;;;;;;;;4.83;88.74;95476.88;5114337;28;1099;-52
2023/01/13 02:38:45;;;;;;;;;;;;;;;4.84;89.20;95470.66;5115264;28;995;-53
2023/01/13 02:44:07;;;;;;;;;;;;;;;4.79;89.28;95472.78;5114879;27;1044;-53
2023/01/13 02:46:40;;;;;;;;;;;;;;;4.69;89.60;95472.66;5115081;28;1015;-52
2023/01/13 02:49:09;;;;;;;;;;;;;;;4.62;89.82;95471.44;5115017;28;964;-52
2023/01/13 02:51:36;;;;;;;;;;;;;;;4.55;90.35;95470.22;5114523;28;1984;-53
2023/01/13 02:54:06;;;;;;;;;;;;;;;4.60;90.14;95470.72;5114620;28;1071;-53
2023/01/13 02:56:34;;;;;;;;;;;;;;;4.71;89.70;95468.09;5114716;28;976;-53
2023/01/13 02:59:00;;;;;;;;;;;;;;;4.79;89.24;95476.28;5114540;28;919;-53
2023/01/13 03:01:26;;;;;;;;;;;;;;;4.84;89.36;95474.13;5114863;28;979;-53
2023/01/13 03:03:53;;;;;;;;;;;;;;;4.81;89.62;95474.34;5113480;28;1060;-53
2023/01/13 03:06:41;;;;;;;;;;;;;;;4.78;89.68;95479.91;5114661;28;1036;-52
2023/01/13 03:09:17;;;;;;;;;;;;;;;4.62;89.89;95474.09;5112697;28;2146;-52
2023/01/13 03:11:58;;;;;;;;;;;;;;;4.48;90.23;95470.69;5114562;28;1887;-53
2023/01/13 03:14:24;;;;;;;;;;;;;;;4.50;90.41;95471.41;5114423;28;1027;-53
2023/01/13 03:17:09;;;;;;;;;;;;;;;4.62;90.14;95471.44;5114382;28;1055;-53
2023/01/13 03:19:45;;;;;;;;;;;;;;;4.50;90.62;95465.28;5114289;28;1054;-53
2023/01/13 03:22:16;;;;;;;;;;;;;;;4.46;90.64;95469.94;5114282;28;1036;-53
2023/01/13 03:24:51;;;;;;;;;;;;;;;4.58;90.98;95467.34;5114083;28;1284;-53
2023/01/13 03:27:38;;;;;;;;;;;;;;;4.59;90.37;95466.34;5114337;28;1023;-53
2023/01/13 03:30:04;;;;;;;;;;;;;;;4.46;90.52;95466.47;5103183;28;1292;-52
2023/01/13 03:32:34;;;;;;;;;;;;;;;4.45;90.58;95467.41;5113941;28;2020;-53
2023/01/13 03:35:11;;;;;;;;;;;;;;;4.44;90.15;95461.28;5114151;28;1054;-53
2023/01/13 03:37:40;;;;;;;;;;;;;;;4.39;89.85;95467.88;5114219;28;1015;-53
2023/01/13 03:40:10;;;;;;;;;;;;;;;4.49;89.97;95475.00;5114059;28;1050;-52
2023/01/13 03:42:37;;;;;;;;;;;;;;;4.61;89.42;95470.59;5113990;28;987;-52
2023/01/13 03:45:11;;;;;;;;;;;;;;;4.63;89.45;95475.75;5113824;28;917;-53
2023/01/13 03:47:37;;;;;;;;;;;;;;;4.51;90.32;95474.88;5113928;28;1036;-53
2023/01/13 03:50:04;;;;;;;;;;;;;;;4.40;90.65;95477.50;5113903;28;1066;-52
2023/01/13 03:52:32;;;;;;;;;;;;;;;4.46;90.54;95472.59;5113596;28;1961;-53
2023/01/13 03:55:10;;;;;;;;;;;;;;;4.54;89.51;95473.84;5113797;28;1056;-53
2023/01/13 03:57:51;;;;;;;;;;;;;;;4.56;89.16;95483.34;5113890;28;1008;-52
2023/01/13 04:00:21;;;;;;;;;;;;;;;4.58;89.30;95477.94;5113993;28;957;-53
2023/01/13 04:02:50;;;;;;;;;;;;;;;4.57;89.41;95482.38;5113797;28;968;-53
2023/01/13 04:05:17;;;;;;;;;;;;;;;4.57;89.78;95481.53;5113817;28;984;-53
2023/01/13 04:07:49;;;;;;;;;;;;;;;4.59;89.50;95485.75;5113608;28;1043;-53
2023/01/13 04:10:18;;;;;;;;;;;;;;;4.60;89.28;95489.25;5113682;28;1126;-53
2023/01/13 04:12:59;;;;;;;;;;;;;;;4.61;89.53;95488.28;5113693;28;1902;-53
2023/01/13 04:15:27;;;;;;;;;;;;;;;4.58;89.61;95488.53;5113816;28;1059;-53
2023/01/13 04:17:53;;;;;;;;;;;;;;;4.62;89.57;95495.28;5114022;28;971;-53
2023/01/13 04:20:20;;;;;;;;;;;;;;;4.64;89.73;95493.34;5113536;28;1032;-53
2023/01/13 04:22:45;;;;;;;;;;;;;;;4.63;89.97;95491.66;5113482;28;1098;-53
2023/01/13 04:25:11;;;;;;;;;;;;;;;4.60;90.22;95491.91;5113568;28;1106;-52
2023/01/13 04:27:37;;;;;;;;;;;;;;;4.62;90.33;95496.09;5113692;28;1081;-53
2023/01/13 04:30:04;;;;;;;;;;;;;;;4.64;89.96;95499.47;5113477;28;1887;-52
2023/01/13 04:32:30;;;;;;;;;;;;;;;4.67;90.18;95493.97;5113516;28;1996;-53
2023/01/13 04:34:56;;;;;;;;;;;;;;;4.64;89.88;95494.19;5113332;28;1031;-52
2023/01/13 04:37:22;;;;;;;;;;;;;;;4.51;90.03;95493.41;5113746;28;1040;-52
2023/01/13 04:39:48;;;;;;;;;;;;;;;4.35;90.51;95499.03;5113302;28;1078;-53
2023/01/13 04:42:14;;;;;;;;;;;;;;;4.40;90.90;95502.19;5113412;28;1043;-53
2023/01/13 04:44:40;;;;;;;;;;;;;;;4.43;90.44;95491.34;5113602;28;1067;-52
2023/01/13 04:47:06;;;;;;;;;;;;;;;4.47;90.52;95498.09;5113330;28;1051;-53
2023/01/13 04:49:32;;;;;;;;;;;;;;;4.52;90.61;95502.22;5113189;28;1060;-53
2023/01/13 04:51:58;;;;;;;;;;;;;;;4.54;90.39;95500.31;5113087;28;1901;-53
2023/01/13 04:54:25;;;;;;;;;;;;;;;4.46;90.23;95501.72;5113254;28;1023;-53
2023/01/13 04:56:51;;;;;;;;;;;;;;;4.36;90.38;95502.53;5113520;28;1166;-52
2023/01/13 04:59:17;;;;;;;;;;;;;;;4.34;90.26;95507.91;5114367;28;1038;-52
2023/01/13 05:01:43;;;;;;;;;;;;;;;4.36;89.94;95505.16;5117054;28;1050;-53
2023/01/13 05:04:09;;;;;;;;;;;;;;;4.39;89.93;95511.09;5116875;28;1063;-52
2023/01/13 05:06:35;;;;;;;;;;;;;;;4.45;89.85;95513.25;5116810;28;921;-52
2023/01/13 05:09:01;;;;;;;;;;;;;;;4.40;90.48;95514.56;5117019;28;983;-53
2023/01/13 05:16:59;;;;;;;;;;;;;;;4.39;90.05;95520.84;5116645;28;1056;-52
2023/01/13 05:19:29;;;;;;;;;;;;;;;4.29;90.71;95518.03;5116546;28;1023;-52
2023/01/13 05:27:26;;;;;;;;;;;;;;;4.20;90.18;95527.47;5116662;28;1035;-52
2023/01/13 05:29:52;;;;;;;;;;;;;;;4.37;89.53;95525.41;5116627;28;1042;-53
2023/01/13 05:32:18;;;;;;;;;;;;;;;4.41;89.25;95525.03;5116409;27;1902;-53
2023/01/13 05:34:44;;;;;;;;;;;;;;;4.27;89.86;95530.53;5116452;28;964;-53
2023/01/13 05:37:12;;;;;;;;;;;;;;;4.23;90.45;95534.34;5116380;28;917;-52
2023/01/13 05:45:08;;;;;;;;;;;;;;;4.43;89.82;95522.28;5116191;28;1043;-53
2023/01/13 05:47:34;;;;;;;;;;;;;;;4.49;89.45;95520.00;5116039;28;1070;-53
2023/01/13 05:50:00;;;;;;;;;;;;;;;4.46;89.97;95524.72;5116086;28;1026;-53
2023/01/13 05:52:27;;;;;;;;;;;;;;;4.45;89.97;95528.31;5115557;28;1910;-53
2023/01/13 05:54:53;;;;;;;;;;;;;;;4.29;90.36;95525.97;5116060;28;1044;-53
2023/01/13 05:57:19;;;;;;;;;;;;;;;4.23;90.21;95527.28;5115784;28;1098;-53
2023/01/13 05:59:45;;;;;;;;;;;;;;;4.36;89.06;95518.41;5115973;28;1022;-52
2023/01/13 06:02:11;;;;;;;;;;;;;;;4.38;89.12;95525.28;5115906;28;1006;-52
2023/01/13 06:04:37;;;;;;;;;;;;;;;4.43;87.67;95527.59;5115690;28;1052;-52
2023/01/13 06:07:03;;;;;;;;;;;;;;;4.41;87.58;95530.34;5115599;28;994;-52
2023/01/13 06:09:29;;;;;;;;;;;;;;;4.23;88.18;95531.69;5115794;28;984;-53
2023/01/13 06:11:55;;;;;;;;;;;;;;;4.18;88.69;95531.22;5115464;28;1898;-53
2023/01/13 06:14:22;;;;;;;;;;;;;;;4.08;89.63;95533.69;5115566;28;967;-52
2023/01/13 06:16:48;;;;;;;;;;;;;;;4.08;89.86;95541.63;5115607;28;1034;-53
2023/01/13 06:19:14;;;;;;;;;;;;;;;4.11;90.04;95547.53;5115516;28;1040;-52
2023/01/13 06:21:40;;;;;;;;;;;;;;;4.26;89.06;95540.25;5115215;28;1002;-53
2023/01/13 06:24:07;;;;;;;;;;;;;;;4.36;88.49;95545.72;5115415;28;1142;-53
2023/01/13 06:26:36;;;;;;;;;;;;;;;4.43;88.59;95549.59;5115418;28;985;-53
2023/01/13 06:29:02;;;;;;;;;;;;;;;4.47;88.68;95537.00;5115268;28;1126;-52
2023/01/13 06:31:28;;;;;;;;;;;;;;;4.44;88.88;95542.50;5115078;27;1984;-53
2023/01/13 06:33:57;;;;;;;;;;;;;;;4.34;88.75;95549.44;5115210;27;1079;-53
2023/01/13 06:36:31;;;;;;;;;;;;;;;4.22;89.07;95545.91;5115209;28;1039;-53
2023/01/13 06:38:58;;;;;;;;;;;;;;;4.32;89.88;95552.19;5115130;27;1071;-53
2023/01/13 06:44:10;;;;;;;;;;;;;;;4.53;88.24;95544.47;5115097;28;1028;-53
2023/01/13 06:46:37;;;;;;;;;;;;;;;4.61;88.10;95549.19;5114824;28;969;-53
2023/01/13 06:49:04;;;;;;;;;;;;;;;4.62;88.42;95546.44;5114902;28;2158;-52
2023/01/13 06:51:30;;;;;;;;;;;;;;;4.58;88.77;95546.78;5114693;28;1978;-53
2023/01/13 06:53:56;;;;;;;;;;;;;;;4.59;89.08;95545.81;5114760;28;1039;-52
2023/01/13 06:56:22;;;;;;;;;;;;;;;4.66;89.01;95555.00;5114800;28;975;-53
2023/01/13 06:58:48;;;;;;;;;;;;;;;4.84;88.21;95548.31;5114750;28;1010;-53
2023/01/13 07:01:14;;;;;;;;;;;;;;;5.05;85.84;95548.47;5114661;28;995;-54
2023/01/13 07:03:40;;;;;;;;;;;;;;;5.30;84.24;95556.34;5113279;28;1123;-53
2023/01/13 07:06:06;;;;;;;;;;;;;;;5.43;83.36;95554.44;5114572;28;1122;-53
2023/01/13 07:08:32;;;;;;;;;;;;;;;5.65;82.39;95559.75;5114578;28;1022;-52
2023/01/13 07:11:00;;;;;;;;;;;;;;;5.85;81.39;95562.63;5114428;28;1051;-51
2023/01/13 07:16:11;;;;;;;;;;;;;;;6.51;77.71;95564.47;5114564;28;1039;-52
2023/01/13 07:18:37;;;;;;;;;;;;;;;6.79;76.99;95555.03;5114536;28;964;-54
2023/01/13 07:21:05;;;;;;;;;;;;;;;7.66;73.62;95559.19;5114510;28;1007;-54
2023/01/13 07:23:32;;;;;;;;;;;;;;;9.73;66.83;95564.41;5113708;28;1106;-53
2023/01/13 07:25:58;;;;;;;;;;;;;;;10.89;61.65;95561.28;5114410;28;961;-53
2023/01/13 07:28:25;;;;;;;;;;;;;;;13.21;55.12;95569.28;5114138;28;1099;-53
2023/01/13 07:30:51;;;;;;;;;;;;;;;15.64;47.80;95575.91;5114156;28;1971;-54
2023/01/13 07:33:17;;;;;;;;;;;;;;;17.76;42.54;95587.75;5114381;28;1917;-54
2023/01/13 07:35:44;;;;;;;;;;;;;;;18.56;40.44;95606.44;5113148;28;1027;-54
2023/01/13 07:38:10;;;;;;;;;;;;;;;19.17;38.64;95608.41;5114304;28;975;-54
2023/01/13 07:40:36;;;;;;;;;;;;;;;19.53;37.20;95615.38;5114117;28;995;-54
2023/01/13 07:45:47;;;;;;;;;;;;;;;20.17;36.47;95608.56;5114018;28;1102;-55
2023/01/13 07:51:38;;;;;;;;;;;;;;;19.91;35.37;95620.25;5113694;28;1913;-55
2023/01/13 07:54:05;;;;;;;;;;;;;;;20.24;35.67;95612.13;5114145;28;1047;-53
2023/01/13 07:56:31;;;;;;;;;;;;;;;19.43;35.92;95610.38;5114003;28;995;-51
2023/01/13 07:58:58;;;;;;;;;;;;;;;19.61;36.27;95608.94;5114070;28;1036;-51
2023/01/13 08:01:26;;;;;;;;;;;;;;;20.07;35.37;95614.44;5113904;28;1049;-51
2023/01/13 08:03:52;;;;;;;;;;;;;;;20.52;34.00;95611.03;5113882;28;1019;-52
2023/01/13 08:06:19;;;;;;;;;;;;;;;19.79;34.90;95608.38;5113730;28;1051;-52
2023/01/13 08:08:45;;;;;;;;;;;;;;;18.12;37.89;95602.22;5113916;28;1020;-52
2023/01/13 08:11:11;;;;;;;;;;;;;;;17.87;38.38;95593.69;5113869;28;1035;-51
2023/01/13 08:13:37;;;;;;;;;;;;;;;17.15;39.10;95590.09;5113613;28;1910;-52
2023/01/13 08:16:05;;;;;;;;;;;;;;;16.96;40.13;95583.44;5113737;28;1035;-51
2023/01/13 08:18:31;;;;;;;;;;;;;;;15.73;42.68;95576.69;5113613;28;1028;-51
2023/01/13 08:21:00;;;;;;;;;;;;;;;13.99;45.68;95572.44;5113700;28;1016;-50
2023/01/13 08:23:26;;;;;;;;;;;;;;;12.42;49.29;95559.91;5113309;28;1091;-51
2023/01/13 08:25:52;;;;;;;;;;;;;;;11.01;54.63;95546.66;5113651;28;1059;-53
2023/01/13 08:28:19;;;;;;;;;;;;;;;9.98;58.56;95546.06;5113694;28;995;-53
2023/01/13 08:30:45;;;;;;;;;;;;;;;9.52;59.98;95545.94;5113720;28;1051;-53
2023/01/13 08:33:11;;;;;;;;;;;;;;;9.35;62.15;95552.00;5112300;28;1918;-53
2023/01/13 08:35:38;;;;;;;;;;;;;;;9.24;61.69;95562.84;5116984;28;964;-53
2023/01/13 08:38:05;;;;;;;;;;;;;;;8.94;63.47;95562.03;5117779;28;965;-53
2023/01/13 08:40:31;;;;;;;;;;;;;;;8.84;62.96;95561.19;5117418;28;1121;-53
2023/01/13 08:42:58;;;;;;;;;;;;;;;9.01;62.12;95563.16;5117540;28;987;-53
2023/01/13 08:45:24;;;;;;;;;;;;;;;9.09;62.34;95559.78;5114713;28;1440;-53
2023/01/13 08:47:50;;;;;;;;;;;;;;;9.07;62.91;95565.25;5117027;28;1109;-53
2023/01/13 08:50:16;;;;;;;;;;;;;;;9.15;62.92;95562.72;5117501;28;996;-53
2023/01/13 08:52:42;;;;;;;;;;;;;;;9.49;61.38;95561.41;5116916;28;1999;-53
2023/01/13 08:55:08;;;;;;;;;;;;;;;9.70;60.58;95563.88;5117145;28;1031;-53
2023/01/13 08:57:34;;;;;;;;;;;;;;;9.96;58.24;95569.41;5116818;28;1126;-53
2023/01/13 09:00:01;;;;;;;;;;;;;;;9.76;59.85;95561.44;5117361;28;963;-53
2023/01/13 09:02:27;;;;;;;;;;;;;;;10.19;59.13;95558.28;5116876;28;1113;-52
2023/01/13 09:04:53;;;;;;;;;;;;;;;10.57;57.35;95564.44;5117288;28;1003;-53
2023/01/13 09:07:19;;;;;;;;;;;;;;;10.61;57.06;95560.50;5116870;28;1032;-53
2023/01/13 09:09:45;;;;;;;;;;;;;;;10.84;56.04;95555.53;5117079;28;1381;-52
2023/01/13 09:14:56;;;;;;;;;;;;;;;10.98;55.23;95541.59;5116824;28;1003;-53
2023/01/13 09:17:22;;;;;;;;;;;;;;;11.04;54.92;95546.38;5116385;27;1273;-52
2023/01/13 09:19:49;;;;;;;;;;;;;;;11.32;53.70;95551.59;5116945;28;980;-53
2023/01/13 09:22:16;;;;;;;;;;;;;;;11.16;55.75;95544.28;5116835;28;995;-53
2023/01/13 09:24:43;;;;;;;;;;;;;;;11.05;55.30;95534.66;5116526;28;1321;-53
2023/01/13 09:27:13;;;;;;;;;;;;;;;11.27;54.19;95535.16;5116425;28;1076;-53
2023/01/13 09:29:39;;;;;;;;;;;;;;;11.39;53.64;95528.56;5116870;28;980;-53
2023/01/13 09:32:05;;;;;;;;;;;;;;;11.55;53.26;95532.34;5116391;28;1914;-52
2023/01/13 09:37:15;;;;;;;;;;;;;;;12.34;50.71;95533.91;5116249;28;1139;-53
2023/01/13 09:39:41;;;;;;;;;;;;;;;12.47;50.79;95526.25;5116353;27;968;-53
2023/01/13 09:45:10;;;;;;;;;;;;;;;11.99;51.71;95513.50;5115961;28;2096;-53
2023/01/13 09:47:54;;;;;;;;;;;;;;;11.77;53.15;95518.41;5115739;28;1128;-52
2023/01/13 09:50:20;;;;;;;;;;;;;;;12.23;50.80;95508.22;5116013;28;1052;-52
2023/01/13 09:52:46;;;;;;;;;;;;;;;12.35;51.39;95500.75;5115809;28;1938;-53
2023/01/13 09:55:17;;;;;;;;;;;;;;;12.80;49.99;95512.06;5116258;28;965;-53
2023/01/13 09:57:43;;;;;;;;;;;;;;;12.50;49.41;95508.97;5115894;28;1026;-53
2023/01/13 10:00:11;;;;;;;;;;;;;;;12.59;50.74;95499.94;5116111;28;1051;-53
2023/01/13 10:02:38;;;;;;;;;;;;;;;12.17;49.84;95502.69;5115931;28;1023;-52
2023/01/13 10:05:13;;;;;;;;;;;;;;;12.14;51.45;95501.19;5115956;28;1051;-52
2023/01/13 10:07:42;;;;;;;;;;;;;;;12.20;50.40;95503.22;5115442;28;1219;-52
2023/01/13 10:10:15;;;;;;;;;;;;;;;11.93;52.55;95488.19;5115953;28;980;-53
2023/01/13 10:15:26;;;;;;;;;;;;;;;11.42;53.58;95477.38;5115650;28;960;-52
2023/01/13 10:18:01;;;;;;;;;;;;;;;11.14;54.38;95482.03;5115385;28;1283;-53
2023/01/13 10:20:44;;;;;;;;;;;;;;;11.46;53.29;95480.59;5115720;28;1046;-52
2023/01/13 10:23:10;;;;;;;;;;;;;;;11.59;53.44;95482.81;5115553;27;1023;-52
2023/01/13 10:25:42;;;;;;;;;;;;;;;11.80;51.28;95493.13;5115289;28;1166;-52
2023/01/13 10:28:13;;;;;;;;;;;;;;;12.32;51.32;95484.16;5115174;28;1081;-53
2023/01/13 10:30:43;;;;;;;;;;;;;;;12.69;51.13;95489.06;5115256;27;969;-52
2023/01/13 10:33:09;;;;;;;;;;;;;;;12.75;49.57;95490.25;5115243;28;1997;-53
2023/01/13 10:35:55;;;;;;;;;;;;;;;12.45;48.91;95479.97;5115293;28;1070;-52
2023/01/13 10:38:21;;;;;;;;;;;;;;;12.23;51.71;95478.75;5115188;28;967;-53
2023/01/13 10:40:48;;;;;;;;;;;;;;;12.41;51.05;95472.44;5115137;28;1080;-53
2023/01/13 10:43:14;;;;;;;;;;;;;;;12.88;49.51;95474.47;5115100;28;913;-53
2023/01/13 10:45:42;;;;;;;;;;;;;;;12.88;48.98;95472.66;5114775;28;1019;-52
2023/01/13 10:48:12;;;;;;;;;;;;;;;12.91;49.35;95463.41;5114910;28;1210;-52
2023/01/13 10:50:39;;;;;;;;;;;;;;;13.01;50.10;95466.78;5115076;28;1039;-52
2023/01/13 10:53:15;;;;;;;;;;;;;;;12.73;48.67;95463.59;5114558;28;1923;-52
2023/01/13 10:55:42;;;;;;;;;;;;;;;12.25;51.03;95454.47;5115111;28;948;-53
2023/01/13 10:58:13;;;;;;;;;;;;;;;12.89;50.53;95460.06;5114061;28;1226;-53
2023/01/13 11:00:39;;;;;;;;;;;;;;;13.13;48.98;95461.91;5114862;28;960;-53
2023/01/13 11:03:11;;;;;;;;;;;;;;;12.94;49.57;95452.38;5114790;28;959;-52
2023/01/13 11:05:37;;;;;;;;;;;;;;;13.21;49.28;95463.75;5114695;28;1032;-53
2023/01/13 11:08:03;;;;;;;;;;;;;;;13.15;48.63;95459.06;5114294;28;1077;-53
2023/01/13 11:10:31;;;;;;;;;;;;;;;12.86;50.51;95449.66;5114720;28;1055;-53
2023/01/13 11:12:57;;;;;;;;;;;;;;;12.29;51.83;95453.97;5114636;28;1906;-53
2023/01/13 11:15:30;;;;;;;;;;;;;;;11.41;51.86;95443.56;5114372;28;1091;-52
2023/01/13 11:18:12;;;;;;;;;;;;;;;11.07;53.84;95444.34;5114246;28;1192;-53
2023/01/13 11:20:41;;;;;;;;;;;;;;;10.69;53.79;95438.38;5114350;28;971;-53
2023/01/13 11:23:13;;;;;;;;;;;;;;;10.74;55.66;95444.13;5114525;28;972;-52
2023/01/13 11:25:42;;;;;;;;;;;;;;;10.74;54.98;95441.44;5113917;28;1150;-53
2023/01/13 11:28:10;;;;;;;;;;;;;;;10.46;54.53;95438.03;5114168;28;1028;-53
2023/01/13 11:30:44;;;;;;;;;;;;;;;10.14;54.56;95435.84;5114129;28;1028;-53
2023/01/13 11:33:13;;;;;;;;;;;;;;;10.24;55.01;95433.09;5114183;27;1980;-52
2023/01/13 11:35:42;;;;;;;;;;;;;;;10.44;56.00;95429.31;5114324;28;1193;-52
2023/01/13 11:38:13;;;;;;;;;;;;;;;10.83;56.15;95439.69;5113982;28;1151;-53
2023/01/13 11:40:45;;;;;;;;;;;;;;;11.02;57.71;95435.13;5114109;28;1156;-53
2023/01/13 11:43:23;;;;;;;;;;;;;;;10.86;56.61;95442.03;5114192;28;1059;-53
2023/01/13 11:45:52;;;;;;;;;;;;;;;10.80;56.29;95436.47;5113984;28;1051;-52
2023/01/13 11:48:20;;;;;;;;;;;;;;;10.62;56.01;95434.63;5113914;28;1084;-52
2023/01/13 11:50:50;;;;;;;;;;;;;;;10.57;58.32;95422.72;5113947;28;1125;-53
2023/01/13 11:53:18;;;;;;;;;;;;;;;10.58;57.87;95427.09;5113559;28;1985;-52
2023/01/13 11:56:16;;;;;;;;;;;;;;;10.45;58.33;95432.81;5112951;28;1019;-52
2023/01/13 11:58:47;;;;;;;;;;;;;;;10.02;57.85;95443.25;5113832;28;1835;-52
2023/01/13 12:01:32;;;;;;;;;;;;;;;9.63;59.72;95438.13;5113887;28;1036;-53
2023/01/13 12:04:06;;;;;;;;;;;;;;;9.54;59.11;95442.53;5113958;28;1031;-52
2023/01/13 12:06:37;;;;;;;;;;;;;;;9.52;58.58;95438.31;5113716;28;1064;-52
2023/01/13 12:09:24;;;;;;;;;;;;;;;9.44;58.69;95446.22;5116349;28;1031;-53
2023/01/13 12:14:52;;;;;;;;;;;;;;;9.45;60.57;95434.56;5117967;28;1163;-51
2023/01/13 12:17:30;;;;;;;;;;;;;;;9.67;61.40;95439.50;5117848;28;1087;-52
2023/01/13 12:19:56;;;;;;;;;;;;;;;9.67;61.13;95431.47;5117829;28;1095;-53
2023/01/13 12:22:22;;;;;;;;;;;;;;;9.52;60.84;95432.97;5117023;28;1114;-53
2023/01/13 12:24:48;;;;;;;;;;;;;;;9.60;60.46;95434.91;5117319;28;1142;-53
2023/01/13 12:27:33;;;;;;;;;;;;;;;9.70;60.62;95430.38;5117246;28;1095;-53
2023/01/13 12:30:00;;;;;;;;;;;;;;;9.75;59.67;95436.06;5116720;28;995;-53
2023/01/13 12:32:36;;;;;;;;;;;;;;;9.78;61.52;95438.47;5117214;28;1986;-52
2023/01/13 12:35:03;;;;;;;;;;;;;;;9.57;61.22;95442.22;5117637;28;1036;-52
2023/01/13 12:37:37;;;;;;;;;;;;;;;9.35;61.24;95448.78;5117467;28;973;-52
2023/01/13 12:40:15;;;;;;;;;;;;;;;8.80;62.93;95443.31;5117417;28;1036;-53
2023/01/13 12:45:38;;;;;;;;;;;;;;;8.43;65.12;95446.72;5117723;28;1019;-52
2023/01/13 12:48:04;;;;;;;;;;;;;;;8.36;64.57;95437.56;5117301;28;1011;-53
2023/01/13 12:50:30;;;;;;;;;;;;;;;8.38;64.31;95447.13;5117114;28;1047;-53
2023/01/13 12:52:57;;;;;;;;;;;;;;;8.31;64.95;95440.66;5116980;28;1910;-52
2023/01/13 12:55:24;;;;;;;;;;;;;;;8.28;65.84;95454.25;5117031;28;1040;-52
2023/01/13 12:58:01;;;;;;;;;;;;;;;8.25;64.99;95443.88;5117066;27;1111;-52
2023/01/13 13:00:39;;;;;;;;;;;;;;;8.21;65.77;95447.78;5117110;28;1040;-52
2023/01/13 13:03:11;;;;;;;;;;;;;;;8.25;64.58;95443.88;5116895;28;1212;-53
2023/01/13 13:05:44;;;;;;;;;;;;;;;8.16;65.00;95445.56;5116855;28;1202;-52
2023/01/13 13:08:14;;;;;;;;;;;;;;;8.12;65.03;95443.28;5117035;28;1045;-52
2023/01/13 13:11:00;;;;;;;;;;;;;;;8.14;65.72;95447.53;5116910;28;1033;-52
2023/01/13 13:13:41;;;;;;;;;;;;;;;8.32;65.49;95455.66;5116460;28;1909;-52
2023/01/13 13:16:26;;;;;;;;;;;;;;;8.33;64.89;95453.84;5117013;28;1059;-53
2023/01/13 13:18:52;;;;;;;;;;;;;;;8.18;64.64;95458.75;5116849;28;968;-52
2023/01/13 13:21:18;;;;;;;;;;;;;;;8.06;65.00;95459.84;5115949;28;1034;-52
2023/01/13 13:23:53;;;;;;;;;;;;;;;7.98;66.51;95466.69;5116412;28;1243;-52
2023/01/13 13:26:20;;;;;;;;;;;;;;;7.95;65.41;95464.31;5116422;28;1019;-52
2023/01/13 13:29:24;;;;;;;;;;;;;;;7.83;65.69;95468.06;5116729;28;1011;-53
2023/01/13 13:32:09;;;;;;;;;;;;;;;7.90;65.33;95461.22;5053473;28;1997;-52
2023/01/13 13:34:55;;;;;;;;;;;;;;;7.89;65.65;95464.00;5053487;28;1072;-52
2023/01/13 13:46:45;;;;;;;;;;;;;;;7.79;65.69;95464.00;5073616;28;1166;-53
2023/01/13 13:49:05;;;;;;;;;;;;;;;8.09;65.68;95460.41;5116101;28;1023;-52
2023/01/13 13:51:39;;;;;;;;;;;;;;;8.02;65.71;95461.94;5115756;28;1910;-52
2023/01/13 13:54:09;;;;;;;;;;;;;;;8.02;65.62;95460.13;5116226;28;1033;-53
2023/01/13 13:56:38;;;;;;;;;;;;;;;8.03;65.22;95468.94;5115817;28;1063;-53
2023/01/13 13:59:07;;;;;;;;;;;;;;;7.99;65.91;95470.22;5116019;28;1030;-53
2023/01/13 14:01:36;;;;;;;;;;;;;;;7.88;65.58;95468.50;5115709;28;1056;-53
2023/01/13 14:04:02;;;;;;;;;;;;;;;7.96;66.03;95463.31;5116089;28;1126;-53
2023/01/13 14:06:28;;;;;;;;;;;;;;;8.08;65.75;95463.19;5115922;28;973;-53
2023/01/13 14:08:54;;;;;;;;;;;;;;;8.04;65.82;95467.13;5115929;28;996;-52
2023/01/13 14:11:28;;;;;;;;;;;;;;;8.05;66.85;95461.66;5115715;28;977;-52
2023/01/13 14:14:05;;;;;;;;;;;;;;;8.13;65.91;95461.81;5115586;28;1918;-52
2023/01/13 14:16:32;;;;;;;;;;;;;;;8.24;65.07;95460.00;5115507;28;1015;-53
2023/01/13 14:18:58;;;;;;;;;;;;;;;8.19;64.88;95466.59;5115729;28;1030;-53
2023/01/13 14:21:28;;;;;;;;;;;;;;;8.08;65.17;95465.88;5115532;28;936;-52